sensor_id;sensor_type;location;lat;lon;timestamp;P1;durP1;ratioP1;P2;durP2;ratioP2
1603;SDS011;795;49.296;11.348;2022-12-07T00:01:41;12.20;;;10.02;;
1603;SDS011;795;49.296;11.348;2022-12-07T00:04:12;17.25;;;10.63;;
1603;SDS011;795;49.296;11.348;2022-12-07T00:06:44;10.88;;;9.75;;
1603;SDS011;795;49.296;11.348;2022-12-07T00:09:17;19.40;;;9.57;;
1603;SDS011;795;49.296;11.348;2022-12-07T00:11:48;17.25;;;12.55;;
1603;SDS011;795;49.296;11.348;2022-12-07T00:14:17;25.33;;;15.27;;
1603;SDS011;795;49.296;11.348;2022-12-07T00:16:45;19.65;;;12.65;;
1603;SDS011;795;49.296;11.348;2022-12-07T00:19:17;19.60;;;11.25;;
1603;SDS011;795;49.296;11.348;2022-12-07T00:21:45;13.60;;;10.15;;
1603;SDS011;795;49.296;11.348;2022-12-07T00:24:11;14.07;;;10.63;;
1603;SDS011;795;49.296;11.348;2022-12-07T00:26:39;19.20;;;13.10;;
1603;SDS011;795;49.296;11.348;2022-12-07T00:29:18;12.80;;;10.20;;
1603;SDS011;795;49.296;11.348;2022-12-07T00:31:48;11.73;;;10.35;;
1603;SDS011;795;49.296;11.348;2022-12-07T00:34:16;13.05;;;10.77;;
1603;SDS011;795;49.296;11.348;2022-12-07T00:36:47;13.85;;;10.23;;
1603;SDS011;795;49.296;11.348;2022-12-07T00:39:15;15.13;;;10.57;;
1603;SDS011;795;49.296;11.348;2022-12-07T00:41:43;12.88;;;10.48;;
1603;SDS011;795;49.296;11.348;2022-12-07T00:44:10;17.35;;;11.98;;
1603;SDS011;795;49.296;11.348;2022-12-07T00:46:37;12.93;;;10.00;;
1603;SDS011;795;49.296;11.348;2022-12-07T00:49:04;14.38;;;10.25;;
1603;SDS011;795;49.296;11.348;2022-12-07T00:51:31;15.20;;;11.20;;
1603;SDS011;795;49.296;11.348;2022-12-07T00:53:58;13.68;;;10.70;;
1603;SDS011;795;49.296;11.348;2022-12-07T00:56:27;11.90;;;10.43;;
1603;SDS011;795;49.296;11.348;2022-12-07T00:58:56;16.90;;;10.77;;
1603;SDS011;795;49.296;11.348;2022-12-07T01:01:30;13.10;;;10.57;;
1603;SDS011;795;49.296;11.348;2022-12-07T01:04:02;14.43;;;10.45;;
1603;SDS011;795;49.296;11.348;2022-12-07T01:06:30;14.13;;;10.88;;
1603;SDS011;795;49.296;11.348;2022-12-07T01:08:57;17.35;;;10.38;;
1603;SDS011;795;49.296;11.348;2022-12-07T01:11:26;18.92;;;12.38;;
1603;SDS011;795;49.296;11.348;2022-12-07T01:13:56;14.02;;;10.43;;
1603;SDS011;795;49.296;11.348;2022-12-07T01:16:27;14.02;;;11.25;;
1603;SDS011;795;49.296;11.348;2022-12-07T01:18:58;13.50;;;10.57;;
1603;SDS011;795;49.296;11.348;2022-12-07T01:21:31;19.88;;;11.60;;
1603;SDS011;795;49.296;11.348;2022-12-07T01:24:03;18.25;;;10.10;;
1603;SDS011;795;49.296;11.348;2022-12-07T01:26:35;16.55;;;11.77;;
1603;SDS011;795;49.296;11.348;2022-12-07T01:29:03;14.60;;;10.00;;
1603;SDS011;795;49.296;11.348;2022-12-07T01:31:30;14.80;;;11.32;;
1603;SDS011;795;49.296;11.348;2022-12-07T01:33:58;15.52;;;10.52;;
1603;SDS011;795;49.296;11.348;2022-12-07T01:36:30;15.15;;;11.43;;
1603;SDS011;795;49.296;11.348;2022-12-07T01:39:02;14.85;;;11.90;;
1603;SDS011;795;49.296;11.348;2022-12-07T01:41:34;15.45;;;10.52;;
1603;SDS011;795;49.296;11.348;2022-12-07T01:44:23;15.52;;;11.80;;
1603;SDS011;795;49.296;11.348;2022-12-07T01:46:56;16.80;;;11.85;;
1603;SDS011;795;49.296;11.348;2022-12-07T01:49:29;14.23;;;9.82;;
1603;SDS011;795;49.296;11.348;2022-12-07T01:52:11;14.90;;;10.93;;
1603;SDS011;795;49.296;11.348;2022-12-07T01:54:54;17.25;;;11.75;;
1603;SDS011;795;49.296;11.348;2022-12-07T01:57:39;19.50;;;11.65;;
1603;SDS011;795;49.296;11.348;2022-12-07T02:00:13;14.57;;;12.00;;
1603;SDS011;795;49.296;11.348;2022-12-07T02:05:37;13.35;;;10.98;;
1603;SDS011;795;49.296;11.348;2022-12-07T02:08:07;17.27;;;11.05;;
1603;SDS011;795;49.296;11.348;2022-12-07T02:10:38;14.85;;;12.48;;
1603;SDS011;795;49.296;11.348;2022-12-07T02:13:08;15.43;;;11.65;;
1603;SDS011;795;49.296;11.348;2022-12-07T02:15:52;15.63;;;11.48;;
1603;SDS011;795;49.296;11.348;2022-12-07T02:31:50;14.43;;;11.75;;
1603;SDS011;795;49.296;11.348;2022-12-07T02:37:19;20.60;;;12.73;;
1603;SDS011;795;49.296;11.348;2022-12-07T02:40:05;17.48;;;12.30;;
1603;SDS011;795;49.296;11.348;2022-12-07T02:42:43;18.33;;;12.75;;
1603;SDS011;795;49.296;11.348;2022-12-07T02:45:17;18.77;;;12.68;;
1603;SDS011;795;49.296;11.348;2022-12-07T02:47:53;24.55;;;13.63;;
1603;SDS011;795;49.296;11.348;2022-12-07T02:50:26;19.25;;;12.25;;
1603;SDS011;795;49.296;11.348;2022-12-07T02:52:54;19.48;;;12.40;;
1603;SDS011;795;49.296;11.348;2022-12-07T02:55:23;18.85;;;12.13;;
1603;SDS011;795;49.296;11.348;2022-12-07T02:58:16;17.45;;;11.65;;
1603;SDS011;795;49.296;11.348;2022-12-07T03:01:10;15.20;;;10.10;;
1603;SDS011;795;49.296;11.348;2022-12-07T03:08:19;17.23;;;12.20;;
1603;SDS011;795;49.296;11.348;2022-12-07T03:11:50;17.02;;;12.57;;
1603;SDS011;795;49.296;11.348;2022-12-07T03:14:40;18.00;;;11.93;;
1603;SDS011;795;49.296;11.348;2022-12-07T03:17:24;19.20;;;13.50;;
1603;SDS011;795;49.296;11.348;2022-12-07T03:19:59;18.95;;;12.80;;
1603;SDS011;795;49.296;11.348;2022-12-07T03:22:34;32.28;;;13.57;;
1603;SDS011;795;49.296;11.348;2022-12-07T03:25:09;18.80;;;13.38;;
1603;SDS011;795;49.296;11.348;2022-12-07T03:30:46;22.98;;;13.30;;
1603;SDS011;795;49.296;11.348;2022-12-07T03:33:26;21.25;;;13.80;;
1603;SDS011;795;49.296;11.348;2022-12-07T03:36:08;18.30;;;12.27;;
1603;SDS011;795;49.296;11.348;2022-12-07T03:39:00;21.30;;;12.90;;
1603;SDS011;795;49.296;11.348;2022-12-07T03:41:59;17.15;;;12.43;;
1603;SDS011;795;49.296;11.348;2022-12-07T03:44:31;22.10;;;13.20;;
1603;SDS011;795;49.296;11.348;2022-12-07T03:47:02;19.50;;;13.35;;
1603;SDS011;795;49.296;11.348;2022-12-07T03:49:51;20.27;;;12.50;;
1603;SDS011;795;49.296;11.348;2022-12-07T03:55:44;17.23;;;12.20;;
1603;SDS011;795;49.296;11.348;2022-12-07T03:58:18;19.63;;;13.40;;
1603;SDS011;795;49.296;11.348;2022-12-07T04:00:49;16.48;;;11.35;;
1603;SDS011;795;49.296;11.348;2022-12-07T04:03:17;18.08;;;12.90;;
1603;SDS011;795;49.296;11.348;2022-12-07T04:05:45;19.55;;;13.57;;
1603;SDS011;795;49.296;11.348;2022-12-07T04:08:12;18.50;;;12.73;;
1603;SDS011;795;49.296;11.348;2022-12-07T04:10:39;16.95;;;12.27;;
1603;SDS011;795;49.296;11.348;2022-12-07T04:13:06;20.63;;;12.63;;
1603;SDS011;795;49.296;11.348;2022-12-07T04:15:33;19.05;;;13.63;;
1603;SDS011;795;49.296;11.348;2022-12-07T04:18:00;20.10;;;12.18;;
1603;SDS011;795;49.296;11.348;2022-12-07T04:20:27;18.63;;;13.20;;
1603;SDS011;795;49.296;11.348;2022-12-07T04:22:54;14.82;;;12.18;;
1603;SDS011;795;49.296;11.348;2022-12-07T04:25:21;17.13;;;11.77;;
1603;SDS011;795;49.296;11.348;2022-12-07T04:27:48;16.77;;;11.85;;
1603;SDS011;795;49.296;11.348;2022-12-07T04:30:15;16.00;;;10.90;;
1603;SDS011;795;49.296;11.348;2022-12-07T04:32:42;17.02;;;11.10;;
1603;SDS011;795;49.296;11.348;2022-12-07T04:35:09;17.23;;;11.32;;
1603;SDS011;795;49.296;11.348;2022-12-07T04:37:36;17.30;;;12.05;;
1603;SDS011;795;49.296;11.348;2022-12-07T04:40:06;14.95;;;11.48;;
1603;SDS011;795;49.296;11.348;2022-12-07T04:42:37;19.65;;;13.70;;
1603;SDS011;795;49.296;11.348;2022-12-07T04:45:04;15.07;;;11.05;;
1603;SDS011;795;49.296;11.348;2022-12-07T04:47:32;20.05;;;11.13;;
1603;SDS011;795;49.296;11.348;2022-12-07T04:49:59;19.20;;;11.93;;
1603;SDS011;795;49.296;11.348;2022-12-07T04:52:27;16.15;;;11.02;;
1603;SDS011;795;49.296;11.348;2022-12-07T04:54:54;19.33;;;10.18;;
1603;SDS011;795;49.296;11.348;2022-12-07T04:57:21;16.65;;;11.90;;
1603;SDS011;795;49.296;11.348;2022-12-07T04:59:47;17.05;;;12.50;;
1603;SDS011;795;49.296;11.348;2022-12-07T05:02:14;19.00;;;11.98;;
1603;SDS011;795;49.296;11.348;2022-12-07T05:04:42;18.25;;;12.60;;
1603;SDS011;795;49.296;11.348;2022-12-07T05:07:09;23.25;;;15.00;;
1603;SDS011;795;49.296;11.348;2022-12-07T05:09:36;18.35;;;12.50;;
1603;SDS011;795;49.296;11.348;2022-12-07T05:12:03;19.85;;;13.00;;
1603;SDS011;795;49.296;11.348;2022-12-07T05:14:29;18.52;;;12.65;;
1603;SDS011;795;49.296;11.348;2022-12-07T05:16:56;20.67;;;12.50;;
1603;SDS011;795;49.296;11.348;2022-12-07T05:19:23;20.58;;;12.07;;
1603;SDS011;795;49.296;11.348;2022-12-07T05:21:52;22.13;;;13.57;;
1603;SDS011;795;49.296;11.348;2022-12-07T05:24:19;22.65;;;15.45;;
1603;SDS011;795;49.296;11.348;2022-12-07T05:26:46;26.15;;;15.00;;
1603;SDS011;795;49.296;11.348;2022-12-07T05:29:13;25.73;;;13.98;;
1603;SDS011;795;49.296;11.348;2022-12-07T05:31:43;21.08;;;13.25;;
1603;SDS011;795;49.296;11.348;2022-12-07T05:34:11;24.63;;;15.23;;
1603;SDS011;795;49.296;11.348;2022-12-07T05:36:39;25.38;;;14.65;;
1603;SDS011;795;49.296;11.348;2022-12-07T05:39:06;22.20;;;13.88;;
1603;SDS011;795;49.296;11.348;2022-12-07T05:41:36;22.35;;;14.80;;
1603;SDS011;795;49.296;11.348;2022-12-07T05:44:21;21.33;;;13.10;;
1603;SDS011;795;49.296;11.348;2022-12-07T05:46:49;21.88;;;12.25;;
1603;SDS011;795;49.296;11.348;2022-12-07T05:49:15;26.13;;;16.23;;
1603;SDS011;795;49.296;11.348;2022-12-07T05:51:42;29.70;;;16.92;;
1603;SDS011;795;49.296;11.348;2022-12-07T05:54:09;25.10;;;16.00;;
1603;SDS011;795;49.296;11.348;2022-12-07T05:56:36;29.10;;;16.02;;
1603;SDS011;795;49.296;11.348;2022-12-07T05:59:03;26.27;;;13.55;;
1603;SDS011;795;49.296;11.348;2022-12-07T06:01:56;31.67;;;15.07;;
1603;SDS011;795;49.296;11.348;2022-12-07T06:04:33;26.27;;;15.65;;
1603;SDS011;795;49.296;11.348;2022-12-07T06:07:08;23.80;;;15.15;;
1603;SDS011;795;49.296;11.348;2022-12-07T06:09:37;22.67;;;15.35;;
1603;SDS011;795;49.296;11.348;2022-12-07T06:12:05;22.20;;;15.30;;
1603;SDS011;795;49.296;11.348;2022-12-07T06:14:54;25.77;;;14.88;;
1603;SDS011;795;49.296;11.348;2022-12-07T06:17:21;21.92;;;15.18;;
1603;SDS011;795;49.296;11.348;2022-12-07T06:19:48;31.27;;;15.85;;
1603;SDS011;795;49.296;11.348;2022-12-07T06:22:15;23.88;;;13.85;;
1603;SDS011;795;49.296;11.348;2022-12-07T06:24:43;23.25;;;15.10;;
1603;SDS011;795;49.296;11.348;2022-12-07T06:27:10;37.67;;;21.52;;
1603;SDS011;795;49.296;11.348;2022-12-07T06:29:38;32.05;;;17.88;;
1603;SDS011;795;49.296;11.348;2022-12-07T06:32:04;27.13;;;14.80;;
1603;SDS011;795;49.296;11.348;2022-12-07T06:34:32;30.02;;;17.35;;
1603;SDS011;795;49.296;11.348;2022-12-07T06:36:59;25.88;;;15.50;;
1603;SDS011;795;49.296;11.348;2022-12-07T06:39:26;27.25;;;15.55;;
1603;SDS011;795;49.296;11.348;2022-12-07T06:41:55;26.70;;;15.35;;
1603;SDS011;795;49.296;11.348;2022-12-07T06:44:23;29.58;;;16.20;;
1603;SDS011;795;49.296;11.348;2022-12-07T06:46:51;26.23;;;15.35;;
1603;SDS011;795;49.296;11.348;2022-12-07T06:49:38;27.35;;;15.20;;
1603;SDS011;795;49.296;11.348;2022-12-07T06:52:05;29.58;;;16.20;;
1603;SDS011;795;49.296;11.348;2022-12-07T06:54:32;26.20;;;15.50;;
1603;SDS011;795;49.296;11.348;2022-12-07T06:56:59;22.50;;;14.05;;
1603;SDS011;795;49.296;11.348;2022-12-07T06:59:26;26.35;;;14.80;;
1603;SDS011;795;49.296;11.348;2022-12-07T07:01:53;28.77;;;16.27;;
1603;SDS011;795;49.296;11.348;2022-12-07T07:04:20;28.20;;;15.50;;
1603;SDS011;795;49.296;11.348;2022-12-07T07:06:47;25.17;;;14.82;;
1603;SDS011;795;49.296;11.348;2022-12-07T07:09:13;31.73;;;16.80;;
1603;SDS011;795;49.296;11.348;2022-12-07T07:11:40;35.97;;;16.85;;
1603;SDS011;795;49.296;11.348;2022-12-07T07:14:07;25.88;;;16.33;;
1603;SDS011;795;49.296;11.348;2022-12-07T07:16:34;28.92;;;17.23;;
1603;SDS011;795;49.296;11.348;2022-12-07T07:19:01;27.73;;;15.80;;
1603;SDS011;795;49.296;11.348;2022-12-07T07:21:28;29.05;;;15.80;;
1603;SDS011;795;49.296;11.348;2022-12-07T07:23:55;31.30;;;17.55;;
1603;SDS011;795;49.296;11.348;2022-12-07T07:26:23;31.55;;;17.25;;
1603;SDS011;795;49.296;11.348;2022-12-07T07:28:49;36.20;;;17.10;;
1603;SDS011;795;49.296;11.348;2022-12-07T07:31:16;23.95;;;15.80;;
1603;SDS011;795;49.296;11.348;2022-12-07T07:33:44;26.75;;;16.33;;
1603;SDS011;795;49.296;11.348;2022-12-07T07:36:13;31.00;;;16.63;;
1603;SDS011;795;49.296;11.348;2022-12-07T07:38:40;27.92;;;15.95;;
1603;SDS011;795;49.296;11.348;2022-12-07T07:41:06;25.63;;;15.90;;
1603;SDS011;795;49.296;11.348;2022-12-07T07:43:33;31.35;;;16.60;;
1603;SDS011;795;49.296;11.348;2022-12-07T07:46:00;27.92;;;15.68;;
1603;SDS011;795;49.296;11.348;2022-12-07T07:48:27;27.15;;;15.60;;
1603;SDS011;795;49.296;11.348;2022-12-07T07:50:54;33.83;;;17.50;;
1603;SDS011;795;49.296;11.348;2022-12-07T07:53:21;30.23;;;16.27;;
1603;SDS011;795;49.296;11.348;2022-12-07T07:55:52;29.98;;;16.63;;
1603;SDS011;795;49.296;11.348;2022-12-07T07:58:20;24.55;;;16.30;;
1603;SDS011;795;49.296;11.348;2022-12-07T08:00:48;26.05;;;17.10;;
1603;SDS011;795;49.296;11.348;2022-12-07T08:03:15;26.00;;;16.23;;
1603;SDS011;795;49.296;11.348;2022-12-07T08:05:43;28.50;;;16.73;;
1603;SDS011;795;49.296;11.348;2022-12-07T08:08:10;36.53;;;15.27;;
1603;SDS011;795;49.296;11.348;2022-12-07T08:10:37;26.98;;;16.20;;
1603;SDS011;795;49.296;11.348;2022-12-07T08:13:05;33.28;;;17.77;;
1603;SDS011;795;49.296;11.348;2022-12-07T08:15:41;26.35;;;15.10;;
1603;SDS011;795;49.296;11.348;2022-12-07T08:18:12;38.95;;;16.75;;
1603;SDS011;795;49.296;11.348;2022-12-07T08:20:41;29.23;;;17.20;;
1603;SDS011;795;49.296;11.348;2022-12-07T08:23:09;32.83;;;16.73;;
1603;SDS011;795;49.296;11.348;2022-12-07T08:25:37;29.83;;;16.52;;
1603;SDS011;795;49.296;11.348;2022-12-07T08:28:05;22.73;;;13.93;;
1603;SDS011;795;49.296;11.348;2022-12-07T08:30:32;30.27;;;16.60;;
1603;SDS011;795;49.296;11.348;2022-12-07T08:32:59;26.33;;;16.45;;
1603;SDS011;795;49.296;11.348;2022-12-07T08:35:26;31.90;;;14.90;;
1603;SDS011;795;49.296;11.348;2022-12-07T08:37:53;25.88;;;15.50;;
1603;SDS011;795;49.296;11.348;2022-12-07T08:40:20;27.88;;;17.30;;
1603;SDS011;795;49.296;11.348;2022-12-07T08:42:50;35.40;;;18.92;;
1603;SDS011;795;49.296;11.348;2022-12-07T08:45:18;32.05;;;17.33;;
1603;SDS011;795;49.296;11.348;2022-12-07T08:50:33;29.25;;;16.02;;
1603;SDS011;795;49.296;11.348;2022-12-07T08:53:07;30.08;;;16.70;;
1603;SDS011;795;49.296;11.348;2022-12-07T08:55:34;30.05;;;18.15;;
1603;SDS011;795;49.296;11.348;2022-12-07T08:58:01;30.58;;;17.83;;
1603;SDS011;795;49.296;11.348;2022-12-07T09:03:52;30.10;;;16.35;;
1603;SDS011;795;49.296;11.348;2022-12-07T09:06:19;35.78;;;17.83;;
1603;SDS011;795;49.296;11.348;2022-12-07T09:08:47;39.92;;;18.65;;
1603;SDS011;795;49.296;11.348;2022-12-07T09:11:21;27.30;;;16.77;;
1603;SDS011;795;49.296;11.348;2022-12-07T09:13:54;36.60;;;16.80;;
1603;SDS011;795;49.296;11.348;2022-12-07T09:16:21;31.00;;;17.38;;
1603;SDS011;795;49.296;11.348;2022-12-07T09:18:49;33.50;;;18.92;;
1603;SDS011;795;49.296;11.348;2022-12-07T09:21:16;38.25;;;18.27;;
1603;SDS011;795;49.296;11.348;2022-12-07T09:23:43;29.98;;;17.52;;
1603;SDS011;795;49.296;11.348;2022-12-07T09:26:09;31.17;;;17.65;;
1603;SDS011;795;49.296;11.348;2022-12-07T09:28:37;35.28;;;17.05;;
1603;SDS011;795;49.296;11.348;2022-12-07T09:31:04;30.67;;;16.92;;
1603;SDS011;795;49.296;11.348;2022-12-07T09:33:54;31.48;;;16.92;;
1603;SDS011;795;49.296;11.348;2022-12-07T09:36:24;31.13;;;16.50;;
1603;SDS011;795;49.296;11.348;2022-12-07T09:38:52;31.90;;;16.83;;
1603;SDS011;795;49.296;11.348;2022-12-07T09:41:19;29.27;;;16.87;;
1603;SDS011;795;49.296;11.348;2022-12-07T09:43:52;27.00;;;15.82;;
1603;SDS011;795;49.296;11.348;2022-12-07T09:46:29;32.63;;;17.73;;
1603;SDS011;795;49.296;11.348;2022-12-07T09:49:05;24.70;;;14.63;;
1603;SDS011;795;49.296;11.348;2022-12-07T09:51:46;24.58;;;14.80;;
1603;SDS011;795;49.296;11.348;2022-12-07T09:54:14;28.65;;;15.73;;
1603;SDS011;795;49.296;11.348;2022-12-07T09:56:43;31.60;;;15.60;;
1603;SDS011;795;49.296;11.348;2022-12-07T09:59:16;29.13;;;16.17;;
1603;SDS011;795;49.296;11.348;2022-12-07T10:01:46;23.08;;;14.05;;
1603;SDS011;795;49.296;11.348;2022-12-07T10:04:17;25.20;;;15.63;;
1603;SDS011;795;49.296;11.348;2022-12-07T10:06:51;23.40;;;14.95;;
1603;SDS011;795;49.296;11.348;2022-12-07T10:09:19;24.88;;;15.48;;
1603;SDS011;795;49.296;11.348;2022-12-07T10:11:57;22.95;;;14.32;;
1603;SDS011;795;49.296;11.348;2022-12-07T10:14:38;26.07;;;14.03;;
1603;SDS011;795;49.296;11.348;2022-12-07T10:17:41;22.05;;;14.60;;
1603;SDS011;795;49.296;11.348;2022-12-07T10:20:19;28.13;;;15.23;;
1603;SDS011;795;49.296;11.348;2022-12-07T10:22:57;36.10;;;14.85;;
1603;SDS011;795;49.296;11.348;2022-12-07T10:25:32;28.23;;;14.23;;
1603;SDS011;795;49.296;11.348;2022-12-07T10:30:59;33.00;;;21.02;;
1603;SDS011;795;49.296;11.348;2022-12-07T10:33:52;28.55;;;16.02;;
1603;SDS011;795;49.296;11.348;2022-12-07T10:36:26;29.90;;;16.95;;
1603;SDS011;795;49.296;11.348;2022-12-07T10:39:15;31.30;;;17.55;;
1603;SDS011;795;49.296;11.348;2022-12-07T10:41:57;27.83;;;16.52;;
1603;SDS011;795;49.296;11.348;2022-12-07T10:44:30;21.98;;;13.75;;
1603;SDS011;795;49.296;11.348;2022-12-07T10:50:22;25.38;;;16.70;;
1603;SDS011;795;49.296;11.348;2022-12-07T10:57:19;32.05;;;18.30;;
1603;SDS011;795;49.296;11.348;2022-12-07T11:13:04;25.02;;;15.40;;
1603;SDS011;795;49.296;11.348;2022-12-07T11:16:07;28.92;;;16.45;;
1603;SDS011;795;49.296;11.348;2022-12-07T11:22:40;19.33;;;12.10;;
1603;SDS011;795;49.296;11.348;2022-12-07T11:38:20;15.10;;;11.88;;
1603;SDS011;795;49.296;11.348;2022-12-07T11:41:08;24.60;;;14.57;;
1603;SDS011;795;49.296;11.348;2022-12-07T11:43:43;16.77;;;11.97;;
1603;SDS011;795;49.296;11.348;2022-12-07T11:46:22;22.87;;;13.33;;
1603;SDS011;795;49.296;11.348;2022-12-07T11:49:10;20.07;;;12.63;;
1603;SDS011;795;49.296;11.348;2022-12-07T11:52:09;19.67;;;13.20;;
1603;SDS011;795;49.296;11.348;2022-12-07T11:54:58;17.17;;;11.17;;
1603;SDS011;795;49.296;11.348;2022-12-07T11:57:46;20.43;;;12.77;;
1603;SDS011;795;49.296;11.348;2022-12-07T12:00:30;19.97;;;12.40;;
1603;SDS011;795;49.296;11.348;2022-12-07T12:03:03;29.70;;;16.63;;
1603;SDS011;795;49.296;11.348;2022-12-07T12:05:43;32.83;;;17.50;;
1603;SDS011;795;49.296;11.348;2022-12-07T12:08:14;29.25;;;18.35;;
1603;SDS011;795;49.296;11.348;2022-12-07T12:20:32;26.23;;;16.55;;
1603;SDS011;795;49.296;11.348;2022-12-07T12:23:15;17.23;;;10.80;;
1603;SDS011;795;49.296;11.348;2022-12-07T12:26:02;17.07;;;11.63;;
1603;SDS011;795;49.296;11.348;2022-12-07T12:28:54;16.60;;;12.10;;
1603;SDS011;795;49.296;11.348;2022-12-07T12:32:21;16.53;;;10.77;;
1603;SDS011;795;49.296;11.348;2022-12-07T12:35:27;19.43;;;12.13;;
1603;SDS011;795;49.296;11.348;2022-12-07T12:41:00;16.80;;;12.87;;
1603;SDS011;795;49.296;11.348;2022-12-07T12:43:41;23.07;;;14.33;;
1603;SDS011;795;49.296;11.348;2022-12-07T12:49:14;19.63;;;13.93;;
1603;SDS011;795;49.296;11.348;2022-12-07T12:52:02;20.53;;;10.73;;
1603;SDS011;795;49.296;11.348;2022-12-07T12:55:19;16.83;;;12.93;;
1603;SDS011;795;49.296;11.348;2022-12-07T13:00:44;14.97;;;10.70;;
1603;SDS011;795;49.296;11.348;2022-12-07T13:03:53;12.90;;;10.40;;
1603;SDS011;795;49.296;11.348;2022-12-07T13:08:53;14.57;;;9.73;;
1603;SDS011;795;49.296;11.348;2022-12-07T13:11:29;16.13;;;12.47;;
1603;SDS011;795;49.296;11.348;2022-12-07T13:17:08;17.50;;;11.73;;
1603;SDS011;795;49.296;11.348;2022-12-07T13:20:00;14.47;;;11.60;;
1603;SDS011;795;49.296;11.348;2022-12-07T13:22:43;13.20;;;10.50;;
1603;SDS011;795;49.296;11.348;2022-12-07T13:25:29;14.00;;;11.57;;
1603;SDS011;795;49.296;11.348;2022-12-07T13:28:14;17.53;;;11.70;;
1603;SDS011;795;49.296;11.348;2022-12-07T13:31:32;13.03;;;10.13;;
1603;SDS011;795;49.296;11.348;2022-12-07T13:33:41;15.30;;;11.20;;
1603;SDS011;795;49.296;11.348;2022-12-07T13:41:27;14.10;;;10.87;;
1603;SDS011;795;49.296;11.348;2022-12-07T13:44:00;13.38;;;10.80;;
1603;SDS011;795;49.296;11.348;2022-12-07T13:49:47;17.83;;;13.10;;
1603;SDS011;795;49.296;11.348;2022-12-07T13:52:20;19.43;;;14.33;;
1603;SDS011;795;49.296;11.348;2022-12-07T13:57:31;17.35;;;11.70;;
1603;SDS011;795;49.296;11.348;2022-12-07T14:00:03;20.30;;;11.33;;
1603;SDS011;795;49.296;11.348;2022-12-07T14:02:55;18.77;;;14.97;;
1603;SDS011;795;49.296;11.348;2022-12-07T14:05:31;13.83;;;9.97;;
1603;SDS011;795;49.296;11.348;2022-12-07T14:08:03;17.70;;;11.33;;
1603;SDS011;795;49.296;11.348;2022-12-07T14:10:38;18.17;;;11.87;;
1603;SDS011;795;49.296;11.348;2022-12-07T14:13:29;17.20;;;9.85;;
1603;SDS011;795;49.296;11.348;2022-12-07T14:16:35;19.00;;;11.13;;
1603;SDS011;795;49.296;11.348;2022-12-07T14:19:05;17.02;;;13.05;;
1603;SDS011;795;49.296;11.348;2022-12-07T14:22:30;13.73;;;10.63;;
1603;SDS011;795;49.296;11.348;2022-12-07T14:25:16;19.85;;;13.07;;
1603;SDS011;795;49.296;11.348;2022-12-07T14:27:54;15.13;;;10.90;;
1603;SDS011;795;49.296;11.348;2022-12-07T14:30:28;19.45;;;12.05;;
1603;SDS011;795;49.296;11.348;2022-12-07T14:33:00;17.27;;;11.27;;
1603;SDS011;795;49.296;11.348;2022-12-07T14:35:32;18.25;;;13.48;;
1603;SDS011;795;49.296;11.348;2022-12-07T14:37:59;19.58;;;13.10;;
1603;SDS011;795;49.296;11.348;2022-12-07T14:40:27;17.20;;;13.55;;
1603;SDS011;795;49.296;11.348;2022-12-07T14:42:57;16.03;;;12.17;;
1603;SDS011;795;49.296;11.348;2022-12-07T14:45:31;17.23;;;12.10;;
1603;SDS011;795;49.296;11.348;2022-12-07T14:47:58;18.80;;;12.00;;
1603;SDS011;795;49.296;11.348;2022-12-07T14:50:47;22.08;;;15.07;;
1603;SDS011;795;49.296;11.348;2022-12-07T14:53:39;24.35;;;15.48;;
1603;SDS011;795;49.296;11.348;2022-12-07T14:56:22;21.70;;;13.27;;
1603;SDS011;795;49.296;11.348;2022-12-07T14:58:49;19.25;;;13.50;;
1603;SDS011;795;49.296;11.348;2022-12-07T15:01:16;25.47;;;17.37;;
1603;SDS011;795;49.296;11.348;2022-12-07T15:03:43;23.35;;;14.07;;
1603;SDS011;795;49.296;11.348;2022-12-07T15:06:10;16.80;;;14.55;;
1603;SDS011;795;49.296;11.348;2022-12-07T15:08:43;24.40;;;14.87;;
1603;SDS011;795;49.296;11.348;2022-12-07T15:11:11;21.20;;;15.05;;
1603;SDS011;795;49.296;11.348;2022-12-07T15:13:43;19.73;;;16.73;;
1603;SDS011;795;49.296;11.348;2022-12-07T15:16:29;22.10;;;17.02;;
1603;SDS011;795;49.296;11.348;2022-12-07T15:19:20;18.20;;;13.20;;
1603;SDS011;795;49.296;11.348;2022-12-07T15:21:55;21.52;;;15.48;;
1603;SDS011;795;49.296;11.348;2022-12-07T15:24:24;16.05;;;12.50;;
1603;SDS011;795;49.296;11.348;2022-12-07T15:26:51;18.02;;;12.35;;
1603;SDS011;795;49.296;11.348;2022-12-07T15:29:19;22.10;;;14.88;;
1603;SDS011;795;49.296;11.348;2022-12-07T15:31:52;17.50;;;13.48;;
1603;SDS011;795;49.296;11.348;2022-12-07T15:34:23;19.70;;;14.02;;
1603;SDS011;795;49.296;11.348;2022-12-07T15:37:01;16.55;;;11.80;;
1603;SDS011;795;49.296;11.348;2022-12-07T15:39:28;19.65;;;13.77;;
1603;SDS011;795;49.296;11.348;2022-12-07T15:41:55;18.10;;;13.05;;
1603;SDS011;795;49.296;11.348;2022-12-07T15:44:22;19.20;;;13.02;;
1603;SDS011;795;49.296;11.348;2022-12-07T15:47:07;19.27;;;13.27;;
1603;SDS011;795;49.296;11.348;2022-12-07T15:49:34;19.42;;;13.43;;
1603;SDS011;795;49.296;11.348;2022-12-07T15:52:01;25.13;;;15.60;;
1603;SDS011;795;49.296;11.348;2022-12-07T15:54:29;36.90;;;16.98;;
1603;SDS011;795;49.296;11.348;2022-12-07T15:56:58;40.70;;;16.65;;
1603;SDS011;795;49.296;11.348;2022-12-07T15:59:25;113.43;;;30.60;;
1603;SDS011;795;49.296;11.348;2022-12-07T16:01:54;25.40;;;15.52;;
1603;SDS011;795;49.296;11.348;2022-12-07T16:04:22;71.75;;;30.67;;
1603;SDS011;795;49.296;11.348;2022-12-07T16:06:49;35.75;;;18.65;;
1603;SDS011;795;49.296;11.348;2022-12-07T16:09:17;27.65;;;15.10;;
1603;SDS011;795;49.296;11.348;2022-12-07T16:11:44;18.33;;;14.15;;
1603;SDS011;795;49.296;11.348;2022-12-07T16:14:12;26.83;;;15.27;;
1603;SDS011;795;49.296;11.348;2022-12-07T16:16:39;21.73;;;13.80;;
1603;SDS011;795;49.296;11.348;2022-12-07T16:19:07;26.63;;;15.38;;
1603;SDS011;795;49.296;11.348;2022-12-07T16:21:36;16.73;;;13.15;;
1603;SDS011;795;49.296;11.348;2022-12-07T16:24:03;16.92;;;12.63;;
1603;SDS011;795;49.296;11.348;2022-12-07T16:26:31;18.75;;;11.85;;
1603;SDS011;795;49.296;11.348;2022-12-07T16:28:59;18.20;;;13.40;;
1603;SDS011;795;49.296;11.348;2022-12-07T16:31:26;19.23;;;12.13;;
1603;SDS011;795;49.296;11.348;2022-12-07T16:33:56;22.52;;;14.65;;
1603;SDS011;795;49.296;11.348;2022-12-07T16:36:24;21.80;;;14.60;;
1603;SDS011;795;49.296;11.348;2022-12-07T16:39:13;20.70;;;12.55;;
1603;SDS011;795;49.296;11.348;2022-12-07T16:41:40;16.10;;;12.88;;
1603;SDS011;795;49.296;11.348;2022-12-07T16:44:09;22.35;;;13.68;;
1603;SDS011;795;49.296;11.348;2022-12-07T16:46:39;26.98;;;13.63;;
1603;SDS011;795;49.296;11.348;2022-12-07T16:49:14;17.00;;;13.37;;
1603;SDS011;795;49.296;11.348;2022-12-07T16:51:42;22.58;;;13.32;;
1603;SDS011;795;49.296;11.348;2022-12-07T16:54:10;21.00;;;13.93;;
1603;SDS011;795;49.296;11.348;2022-12-07T16:56:38;26.75;;;14.88;;
1603;SDS011;795;49.296;11.348;2022-12-07T16:59:06;29.30;;;17.17;;
1603;SDS011;795;49.296;11.348;2022-12-07T17:01:34;24.88;;;16.15;;
1603;SDS011;795;49.296;11.348;2022-12-07T17:04:01;21.10;;;15.98;;
1603;SDS011;795;49.296;11.348;2022-12-07T17:06:30;20.10;;;15.70;;
1603;SDS011;795;49.296;11.348;2022-12-07T17:08:57;25.33;;;15.48;;
1603;SDS011;795;49.296;11.348;2022-12-07T17:11:28;22.40;;;17.30;;
1603;SDS011;795;49.296;11.348;2022-12-07T17:13:59;27.25;;;18.90;;
1603;SDS011;795;49.296;11.348;2022-12-07T17:16:45;21.15;;;15.70;;